Coevorden, Netherlands
Current Conditions -  °F | °C
As of 3:25 AM on Friday 21 Nov 2014 (Local Time) from EHGG Reporting Station
Haze Haze  
Wind Chill: 30°   Ceiling: Unl
Heat Index: 34°   Visibility: 1.5mi
Dew Point: 34°   Wind: 5mph
Humidity: 100%   Direction: 90°E
Pressure: 30.3"   Gusts: NA
Location:  52.66°N, 6.74°E
Report Text: EHGG 210225Z AUTO 09004KT 2400 BR NCD 01/01 Q1026
Loading
Personal Weather Stations






























Interactive Weather Map New forecast layout! Learn more

10-Day Weather Forecast

Advertisements
Track Severe Weather on mobile